Главная страница
METAR-TAF:

METAR-TAF

Аэропорты :

Днепропетровск, Украина

широта: 48-21-26N, долгота: 035-06-02E, высота над уровнем моря: 147 м

Текущие метеонаблюдения

Эта сводка был подготовлена 25 минут назад, в 07:00 UTC
Ветер 6 Узел от юго-западный, изменяющийся между южный и западный
Температура 18°C
Влажность 49%
Давление 1017 hPa
Видимость 10 км и более
Нет облачности ниже 1500 м, и нет кучево-дождевой облачности

METAR: UKDD 290700Z 22003MPS 170V270 CAVOK 18/07 Q1017 R08/090070 NOSIG

Время: 10:25 (07:25 UTC)

Прогноз

Эта сводка был подготовлена 2 часа и 23 минут назад, в 05:02 UTC
Прогноз действительный с 29-го 06 UTC до 30-го 06 UTC
Ветер 4 Узел переменных направлений
Видимость 10 км и более
Нет облачности ниже 1500 м, и нет кучево-дождевой облачности
временами
С 29-го 09 UTC до 29-го 14 UTC
Ветер 12 Узел от южный-юго-западный

TAF: UKDD 290502Z 2906/3006 VRB02MPS CAVOK TEMPO 2909/2914 20006MPS

Метеонаблюдения и прогнозы для более 4000 аэропортов (сводки METAR и TAF).

Имеющиеся станции представлены на карте желтыми и красными точками.

Чтобы увидеть название станции, наведите на нее мышь.

Затем щелкните, чтобы увидеть метеонаблюдения и метеопрогнозы.

Управление картой: чтобы увеличить масштаб, щелкните зеленые кнопки с черным крестиком; чтобы уменьшить масштаб, щелкните зеленую кнопку с тире; для просмотра соседних карт щелкайте зеленые стрелки.


METAR-TAF: